Pagina principale
METAR-TAF:

METAR-TAF

Aeroporti :

Aeroporto di Decimomannu

Decimomannu, Italia

latitudine: 39-21N, longitudine: 008-58E, altezza: 29 m

Osservazione

Il bollettino è stato emesso 43 minuti fa, alle 17:55 UTC
Vento 11 kt da ovest/sud-ovest
Temperature 19°C
Umidità 73%
Pressione 1007 hPa
Visibilità 10 km o più
Poco nuvoloso ad un'altezza di 3000 ft

METAR: LIED 191755Z 24011KT 9999 FEW030 19/14 Q1007

Ora: 20:38 (18:38 UTC)

Previsione

Il bollettino è stato emesso 1 ora e 38 minuti fa, alle 17:00 UTC
Previsione valida dal 19 alle 18 UTC al 20 alle 03 UTC
Vento 12 kt da ovest
Visibilità 10 km o più
Nubi sparse ad un'altezza di 3000 ft
Evoluzione graduale
dal 19 alle 20 UTC al 19 alle 22 UTC
Vento 2 kt da direzioni variabili

TAF: LIED 191700Z 1918/2003 27012KT 9999 SCT030 BECMG 1920/1922 VRB02KT

Osservazioni e previsioni meteorologiche di più di 4000 aeroporti (messaggi METAR e TAF).

Le stazioni disponibili sono rappresentate dai dischi gialli e rossi sulla carta.

Puntare il mouse per vedere il nome della stazione.

Clicca sopra per visualizzare le osservazioni e previsioni meteorologiche.

Per cambiare la mappa : fare clic sui pulsanti verdi con una croce nera per ingrandire, il pulsante verde con un trattino per diminuire, o sulla freccia verde per le mappe adiacenti.


METAR-TAF: